sensor_id;sensor_type;location;lat;lon;timestamp;P1;durP1;ratioP1;P2;durP2;ratioP2
10343;SDS011;5217;43.960;10.954;2023-02-03T00:00:03;15.83;;;12.67;;
10343;SDS011;5217;43.960;10.954;2023-02-03T00:02:33;14.43;;;12.33;;
10343;SDS011;5217;43.960;10.954;2023-02-03T00:05:01;15.80;;;12.67;;
10343;SDS011;5217;43.960;10.954;2023-02-03T00:07:30;16.00;;;12.57;;
10343;SDS011;5217;43.960;10.954;2023-02-03T00:10:01;14.00;;;11.80;;
10343;SDS011;5217;43.960;10.954;2023-02-03T00:12:30;14.77;;;12.33;;
10343;SDS011;5217;43.960;10.954;2023-02-03T00:15:00;14.47;;;12.83;;
10343;SDS011;5217;43.960;10.954;2023-02-03T00:17:28;16.57;;;13.13;;
10343;SDS011;5217;43.960;10.954;2023-02-03T00:19:56;14.23;;;12.73;;
10343;SDS011;5217;43.960;10.954;2023-02-03T00:22:25;17.97;;;14.80;;
10343;SDS011;5217;43.960;10.954;2023-02-03T00:24:53;15.80;;;13.87;;
10343;SDS011;5217;43.960;10.954;2023-02-03T00:27:22;16.00;;;14.20;;
10343;SDS011;5217;43.960;10.954;2023-02-03T00:29:51;15.93;;;13.53;;
10343;SDS011;5217;43.960;10.954;2023-02-03T00:32:19;15.70;;;13.27;;
10343;SDS011;5217;43.960;10.954;2023-02-03T00:34:47;15.90;;;12.43;;
10343;SDS011;5217;43.960;10.954;2023-02-03T00:37:16;13.03;;;11.40;;
10343;SDS011;5217;43.960;10.954;2023-02-03T00:39:44;14.23;;;11.67;;
10343;SDS011;5217;43.960;10.954;2023-02-03T00:42:13;11.87;;;10.43;;
10343;SDS011;5217;43.960;10.954;2023-02-03T00:44:43;12.33;;;10.63;;
10343;SDS011;5217;43.960;10.954;2023-02-03T00:47:11;12.57;;;10.97;;
10343;SDS011;5217;43.960;10.954;2023-02-03T00:49:39;12.67;;;10.80;;
10343;SDS011;5217;43.960;10.954;2023-02-03T00:52:08;11.70;;;10.23;;
10343;SDS011;5217;43.960;10.954;2023-02-03T00:54:36;11.87;;;10.33;;
10343;SDS011;5217;43.960;10.954;2023-02-03T00:57:04;13.27;;;10.37;;
10343;SDS011;5217;43.960;10.954;2023-02-03T00:59:32;13.33;;;10.43;;
10343;SDS011;5217;43.960;10.954;2023-02-03T01:02:02;13.30;;;10.03;;
10343;SDS011;5217;43.960;10.954;2023-02-03T01:04:30;11.90;;;10.17;;
10343;SDS011;5217;43.960;10.954;2023-02-03T01:06:59;11.30;;;10.10;;
10343;SDS011;5217;43.960;10.954;2023-02-03T01:09:27;12.23;;;10.00;;
10343;SDS011;5217;43.960;10.954;2023-02-03T01:11:55;14.10;;;10.63;;
10343;SDS011;5217;43.960;10.954;2023-02-03T01:14:24;12.33;;;10.13;;
10343;SDS011;5217;43.960;10.954;2023-02-03T01:16:52;12.10;;;10.53;;
10343;SDS011;5217;43.960;10.954;2023-02-03T01:19:22;12.30;;;9.23;;
10343;SDS011;5217;43.960;10.954;2023-02-03T01:21:51;11.27;;;9.33;;
10343;SDS011;5217;43.960;10.954;2023-02-03T01:24:19;10.60;;;8.80;;
10343;SDS011;5217;43.960;10.954;2023-02-03T01:26:47;12.00;;;9.63;;
10343;SDS011;5217;43.960;10.954;2023-02-03T01:29:16;11.57;;;8.63;;
10343;SDS011;5217;43.960;10.954;2023-02-03T01:31:44;12.70;;;9.20;;
10343;SDS011;5217;43.960;10.954;2023-02-03T01:34:13;10.20;;;8.93;;
10343;SDS011;5217;43.960;10.954;2023-02-03T01:36:43;11.93;;;8.20;;
10343;SDS011;5217;43.960;10.954;2023-02-03T01:39:12;9.60;;;8.50;;
10343;SDS011;5217;43.960;10.954;2023-02-03T01:41:41;9.10;;;8.17;;
10343;SDS011;5217;43.960;10.954;2023-02-03T01:47:10;10.27;;;8.33;;
10343;SDS011;5217;43.960;10.954;2023-02-03T01:49:46;9.53;;;7.87;;
10343;SDS011;5217;43.960;10.954;2023-02-03T01:52:20;9.97;;;8.03;;
10343;SDS011;5217;43.960;10.954;2023-02-03T01:54:49;11.10;;;8.73;;
10343;SDS011;5217;43.960;10.954;2023-02-03T01:57:21;8.60;;;7.77;;
10343;SDS011;5217;43.960;10.954;2023-02-03T01:59:53;11.10;;;8.63;;
10343;SDS011;5217;43.960;10.954;2023-02-03T02:02:23;11.70;;;9.60;;
10343;SDS011;5217;43.960;10.954;2023-02-03T02:04:54;14.27;;;11.43;;
10343;SDS011;5217;43.960;10.954;2023-02-03T02:07:26;16.60;;;12.80;;
10343;SDS011;5217;43.960;10.954;2023-02-03T02:09:55;15.60;;;11.67;;
10343;SDS011;5217;43.960;10.954;2023-02-03T02:12:24;13.87;;;10.07;;
10343;SDS011;5217;43.960;10.954;2023-02-03T02:14:54;10.77;;;8.73;;
10343;SDS011;5217;43.960;10.954;2023-02-03T02:17:31;10.63;;;8.63;;
10343;SDS011;5217;43.960;10.954;2023-02-03T02:26:27;9.47;;;7.70;;
10343;SDS011;5217;43.960;10.954;2023-02-03T02:29:33;10.73;;;6.97;;
10343;SDS011;5217;43.960;10.954;2023-02-03T02:32:27;8.57;;;7.30;;
10343;SDS011;5217;43.960;10.954;2023-02-03T02:35:03;8.73;;;6.60;;
10343;SDS011;5217;43.960;10.954;2023-02-03T02:37:44;6.87;;;6.03;;
10343;SDS011;5217;43.960;10.954;2023-02-03T02:40:19;9.03;;;6.33;;
10343;SDS011;5217;43.960;10.954;2023-02-03T02:42:56;7.40;;;5.90;;
10343;SDS011;5217;43.960;10.954;2023-02-03T02:45:29;6.20;;;5.60;;
10343;SDS011;5217;43.960;10.954;2023-02-03T02:48:11;7.50;;;6.10;;
10343;SDS011;5217;43.960;10.954;2023-02-03T02:50:43;7.60;;;6.10;;
10343;SDS011;5217;43.960;10.954;2023-02-03T02:53:14;7.40;;;5.70;;
10343;SDS011;5217;43.960;10.954;2023-02-03T02:55:44;7.90;;;6.03;;
10343;SDS011;5217;43.960;10.954;2023-02-03T02:58:13;7.50;;;6.17;;
10343;SDS011;5217;43.960;10.954;2023-02-03T03:00:44;8.47;;;5.80;;
10343;SDS011;5217;43.960;10.954;2023-02-03T03:03:16;7.03;;;5.93;;
10343;SDS011;5217;43.960;10.954;2023-02-03T03:05:47;6.90;;;6.20;;
10343;SDS011;5217;43.960;10.954;2023-02-03T03:08:19;7.33;;;6.53;;
10343;SDS011;5217;43.960;10.954;2023-02-03T03:10:52;7.10;;;6.13;;
10343;SDS011;5217;43.960;10.954;2023-02-03T03:13:24;8.10;;;6.47;;
10343;SDS011;5217;43.960;10.954;2023-02-03T03:15:56;10.00;;;7.50;;
10343;SDS011;5217;43.960;10.954;2023-02-03T03:18:28;8.93;;;6.87;;
10343;SDS011;5217;43.960;10.954;2023-02-03T03:20:59;8.07;;;6.43;;
10343;SDS011;5217;43.960;10.954;2023-02-03T03:23:32;7.33;;;6.63;;
10343;SDS011;5217;43.960;10.954;2023-02-03T03:26:07;7.17;;;6.20;;
10343;SDS011;5217;43.960;10.954;2023-02-03T03:28:42;6.77;;;6.07;;
10343;SDS011;5217;43.960;10.954;2023-02-03T03:31:15;6.47;;;5.60;;
10343;SDS011;5217;43.960;10.954;2023-02-03T03:33:45;5.93;;;5.33;;
10343;SDS011;5217;43.960;10.954;2023-02-03T03:36:19;6.30;;;5.40;;
10343;SDS011;5217;43.960;10.954;2023-02-03T03:38:53;6.67;;;5.47;;
10343;SDS011;5217;43.960;10.954;2023-02-03T03:41:29;6.63;;;5.40;;
10343;SDS011;5217;43.960;10.954;2023-02-03T03:44:05;6.13;;;5.53;;
10343;SDS011;5217;43.960;10.954;2023-02-03T03:46:42;6.30;;;5.53;;
10343;SDS011;5217;43.960;10.954;2023-02-03T03:49:14;7.40;;;6.60;;
10343;SDS011;5217;43.960;10.954;2023-02-03T03:51:45;7.50;;;6.37;;
10343;SDS011;5217;43.960;10.954;2023-02-03T03:54:18;6.87;;;6.27;;
10343;SDS011;5217;43.960;10.954;2023-02-03T03:56:50;8.33;;;6.30;;
10343;SDS011;5217;43.960;10.954;2023-02-03T03:59:25;6.70;;;5.97;;
10343;SDS011;5217;43.960;10.954;2023-02-03T04:01:55;7.03;;;6.30;;
10343;SDS011;5217;43.960;10.954;2023-02-03T04:04:32;7.23;;;6.53;;
10343;SDS011;5217;43.960;10.954;2023-02-03T04:07:03;8.00;;;6.60;;
10343;SDS011;5217;43.960;10.954;2023-02-03T04:09:31;7.07;;;6.20;;
10343;SDS011;5217;43.960;10.954;2023-02-03T04:12:02;7.30;;;6.60;;
10343;SDS011;5217;43.960;10.954;2023-02-03T04:14:32;7.53;;;5.97;;
10343;SDS011;5217;43.960;10.954;2023-02-03T04:17:04;8.10;;;6.13;;
10343;SDS011;5217;43.960;10.954;2023-02-03T04:19:33;7.07;;;5.70;;
10343;SDS011;5217;43.960;10.954;2023-02-03T04:22:02;5.97;;;5.20;;
10343;SDS011;5217;43.960;10.954;2023-02-03T04:24:30;7.07;;;5.90;;
10343;SDS011;5217;43.960;10.954;2023-02-03T04:26:58;6.00;;;5.40;;
10343;SDS011;5217;43.960;10.954;2023-02-03T04:29:30;6.10;;;5.20;;
10343;SDS011;5217;43.960;10.954;2023-02-03T04:31:58;7.80;;;5.73;;
10343;SDS011;5217;43.960;10.954;2023-02-03T04:34:27;5.97;;;5.20;;
10343;SDS011;5217;43.960;10.954;2023-02-03T04:36:57;8.30;;;6.10;;
10343;SDS011;5217;43.960;10.954;2023-02-03T04:39:25;5.97;;;5.37;;
10343;SDS011;5217;43.960;10.954;2023-02-03T04:41:53;6.90;;;6.10;;
10343;SDS011;5217;43.960;10.954;2023-02-03T04:44:21;7.10;;;5.57;;
10343;SDS011;5217;43.960;10.954;2023-02-03T04:46:50;6.03;;;5.43;;
10343;SDS011;5217;43.960;10.954;2023-02-03T04:49:18;7.67;;;5.60;;
10343;SDS011;5217;43.960;10.954;2023-02-03T04:51:47;7.73;;;5.77;;
10343;SDS011;5217;43.960;10.954;2023-02-03T04:54:17;6.30;;;5.63;;
10343;SDS011;5217;43.960;10.954;2023-02-03T04:56:45;8.40;;;6.37;;
10343;SDS011;5217;43.960;10.954;2023-02-03T04:59:13;7.83;;;6.37;;
10343;SDS011;5217;43.960;10.954;2023-02-03T05:01:41;7.33;;;6.07;;
10343;SDS011;5217;43.960;10.954;2023-02-03T05:04:10;7.73;;;6.23;;
10343;SDS011;5217;43.960;10.954;2023-02-03T05:06:38;7.97;;;6.97;;
10343;SDS011;5217;43.960;10.954;2023-02-03T05:09:06;8.30;;;7.07;;
10343;SDS011;5217;43.960;10.954;2023-02-03T05:11:36;8.10;;;7.00;;
10343;SDS011;5217;43.960;10.954;2023-02-03T05:14:05;8.60;;;7.30;;
10343;SDS011;5217;43.960;10.954;2023-02-03T05:16:33;8.80;;;6.70;;
10343;SDS011;5217;43.960;10.954;2023-02-03T05:19:02;8.83;;;7.17;;
10343;SDS011;5217;43.960;10.954;2023-02-03T05:21:30;7.53;;;6.80;;
10343;SDS011;5217;43.960;10.954;2023-02-03T05:23:59;8.03;;;6.97;;
10343;SDS011;5217;43.960;10.954;2023-02-03T05:26:28;10.30;;;7.20;;
10343;SDS011;5217;43.960;10.954;2023-02-03T05:28:58;9.30;;;7.23;;
10343;SDS011;5217;43.960;10.954;2023-02-03T05:31:26;8.83;;;7.60;;
10343;SDS011;5217;43.960;10.954;2023-02-03T05:33:55;8.17;;;7.13;;
10343;SDS011;5217;43.960;10.954;2023-02-03T05:36:23;10.13;;;7.83;;
10343;SDS011;5217;43.960;10.954;2023-02-03T05:38:51;8.70;;;7.30;;
10343;SDS011;5217;43.960;10.954;2023-02-03T05:41:20;6.97;;;6.20;;
10343;SDS011;5217;43.960;10.954;2023-02-03T05:44:07;8.33;;;6.73;;
10343;SDS011;5217;43.960;10.954;2023-02-03T05:46:35;7.33;;;6.53;;
10343;SDS011;5217;43.960;10.954;2023-02-03T05:49:04;7.83;;;6.47;;
10343;SDS011;5217;43.960;10.954;2023-02-03T05:51:32;7.90;;;6.63;;
10343;SDS011;5217;43.960;10.954;2023-02-03T05:54:00;7.87;;;6.67;;
10343;SDS011;5217;43.960;10.954;2023-02-03T05:56:29;9.37;;;6.47;;
10343;SDS011;5217;43.960;10.954;2023-02-03T05:58:57;7.67;;;6.70;;
10343;SDS011;5217;43.960;10.954;2023-02-03T06:01:27;8.67;;;7.00;;
10343;SDS011;5217;43.960;10.954;2023-02-03T06:03:55;7.23;;;6.27;;
10343;SDS011;5217;43.960;10.954;2023-02-03T06:06:24;7.60;;;6.33;;
10343;SDS011;5217;43.960;10.954;2023-02-03T06:08:52;7.43;;;6.17;;
10343;SDS011;5217;43.960;10.954;2023-02-03T06:11:22;6.63;;;6.00;;
10343;SDS011;5217;43.960;10.954;2023-02-03T06:13:51;7.27;;;5.90;;
10343;SDS011;5217;43.960;10.954;2023-02-03T06:16:19;7.60;;;6.30;;
10343;SDS011;5217;43.960;10.954;2023-02-03T06:18:51;7.97;;;6.60;;
10343;SDS011;5217;43.960;10.954;2023-02-03T06:21:20;7.90;;;7.10;;
10343;SDS011;5217;43.960;10.954;2023-02-03T06:23:49;7.73;;;6.93;;
10343;SDS011;5217;43.960;10.954;2023-02-03T06:26:17;9.33;;;7.70;;
10343;SDS011;5217;43.960;10.954;2023-02-03T06:28:46;8.80;;;7.90;;
10343;SDS011;5217;43.960;10.954;2023-02-03T06:31:14;7.80;;;7.10;;
10343;SDS011;5217;43.960;10.954;2023-02-03T06:33:43;9.27;;;7.97;;
10343;SDS011;5217;43.960;10.954;2023-02-03T06:36:12;10.13;;;8.13;;
10343;SDS011;5217;43.960;10.954;2023-02-03T06:38:41;11.00;;;8.27;;
10343;SDS011;5217;43.960;10.954;2023-02-03T06:41:09;8.83;;;7.73;;
10343;SDS011;5217;43.960;10.954;2023-02-03T06:43:37;9.73;;;8.43;;
10343;SDS011;5217;43.960;10.954;2023-02-03T06:46:06;10.60;;;9.07;;
10343;SDS011;5217;43.960;10.954;2023-02-03T06:48:34;9.70;;;8.33;;
10343;SDS011;5217;43.960;10.954;2023-02-03T06:51:02;9.80;;;8.70;;
10343;SDS011;5217;43.960;10.954;2023-02-03T06:53:33;11.07;;;9.30;;
10343;SDS011;5217;43.960;10.954;2023-02-03T06:56:01;10.13;;;8.87;;
10343;SDS011;5217;43.960;10.954;2023-02-03T06:58:29;11.10;;;9.03;;
10343;SDS011;5217;43.960;10.954;2023-02-03T07:00:58;9.97;;;8.67;;
10343;SDS011;5217;43.960;10.954;2023-02-03T07:03:26;10.30;;;8.57;;
10343;SDS011;5217;43.960;10.954;2023-02-03T07:05:54;10.37;;;8.97;;
10343;SDS011;5217;43.960;10.954;2023-02-03T07:08:23;10.53;;;9.50;;
10343;SDS011;5217;43.960;10.954;2023-02-03T07:10:53;9.73;;;8.70;;
10343;SDS011;5217;43.960;10.954;2023-02-03T07:13:22;9.60;;;8.60;;
10343;SDS011;5217;43.960;10.954;2023-02-03T07:15:50;9.77;;;8.77;;
10343;SDS011;5217;43.960;10.954;2023-02-03T07:18:19;11.77;;;9.50;;
10343;SDS011;5217;43.960;10.954;2023-02-03T07:21:09;10.20;;;9.20;;
10343;SDS011;5217;43.960;10.954;2023-02-03T07:23:38;10.17;;;9.03;;
10343;SDS011;5217;43.960;10.954;2023-02-03T07:26:08;9.17;;;8.13;;
10343;SDS011;5217;43.960;10.954;2023-02-03T07:28:37;12.13;;;8.63;;
10343;SDS011;5217;43.960;10.954;2023-02-03T07:31:05;11.13;;;8.80;;
10343;SDS011;5217;43.960;10.954;2023-02-03T07:33:36;10.47;;;9.30;;
10343;SDS011;5217;43.960;10.954;2023-02-03T07:36:05;10.43;;;9.33;;
10343;SDS011;5217;43.960;10.954;2023-02-03T07:38:35;11.20;;;9.50;;
10343;SDS011;5217;43.960;10.954;2023-02-03T07:41:04;10.50;;;9.40;;
10343;SDS011;5217;43.960;10.954;2023-02-03T07:43:34;11.03;;;9.93;;
10343;SDS011;5217;43.960;10.954;2023-02-03T07:46:03;11.53;;;10.30;;
10343;SDS011;5217;43.960;10.954;2023-02-03T07:48:31;11.57;;;10.03;;
10343;SDS011;5217;43.960;10.954;2023-02-03T07:50:59;10.17;;;9.17;;
10343;SDS011;5217;43.960;10.954;2023-02-03T07:53:28;9.73;;;8.20;;
10343;SDS011;5217;43.960;10.954;2023-02-03T07:55:58;10.10;;;8.23;;
10343;SDS011;5217;43.960;10.954;2023-02-03T07:58:27;12.47;;;10.93;;
10343;SDS011;5217;43.960;10.954;2023-02-03T08:00:57;16.77;;;14.90;;
10343;SDS011;5217;43.960;10.954;2023-02-03T08:03:25;17.77;;;15.87;;
10343;SDS011;5217;43.960;10.954;2023-02-03T08:05:54;19.87;;;17.67;;
10343;SDS011;5217;43.960;10.954;2023-02-03T08:08:22;20.13;;;18.13;;
10343;SDS011;5217;43.960;10.954;2023-02-03T08:10:50;21.70;;;19.20;;
10343;SDS011;5217;43.960;10.954;2023-02-03T08:13:21;22.13;;;19.77;;
10343;SDS011;5217;43.960;10.954;2023-02-03T08:15:49;21.77;;;19.47;;
10343;SDS011;5217;43.960;10.954;2023-02-03T08:18:19;21.33;;;19.13;;
10343;SDS011;5217;43.960;10.954;2023-02-03T08:20:47;21.50;;;19.30;;
10343;SDS011;5217;43.960;10.954;2023-02-03T08:23:16;25.67;;;20.63;;
10343;SDS011;5217;43.960;10.954;2023-02-03T08:25:44;21.33;;;18.50;;
10343;SDS011;5217;43.960;10.954;2023-02-03T08:28:16;23.30;;;19.70;;
10343;SDS011;5217;43.960;10.954;2023-02-03T08:30:45;22.73;;;19.80;;
10343;SDS011;5217;43.960;10.954;2023-02-03T08:33:13;21.57;;;19.20;;
10343;SDS011;5217;43.960;10.954;2023-02-03T08:35:45;21.53;;;19.33;;
10343;SDS011;5217;43.960;10.954;2023-02-03T08:38:14;21.20;;;18.80;;
10343;SDS011;5217;43.960;10.954;2023-02-03T08:40:42;22.80;;;20.50;;
10343;SDS011;5217;43.960;10.954;2023-02-03T08:43:10;22.50;;;20.23;;
10343;SDS011;5217;43.960;10.954;2023-02-03T08:45:39;21.20;;;18.90;;
10343;SDS011;5217;43.960;10.954;2023-02-03T08:48:07;21.87;;;19.40;;
10343;SDS011;5217;43.960;10.954;2023-02-03T08:50:36;20.60;;;18.27;;
10343;SDS011;5217;43.960;10.954;2023-02-03T08:53:05;21.37;;;19.27;;
10343;SDS011;5217;43.960;10.954;2023-02-03T08:55:37;21.43;;;19.20;;
10343;SDS011;5217;43.960;10.954;2023-02-03T08:58:05;21.37;;;19.20;;
10343;SDS011;5217;43.960;10.954;2023-02-03T09:00:33;21.40;;;19.10;;
10343;SDS011;5217;43.960;10.954;2023-02-03T09:03:02;21.17;;;18.63;;
10343;SDS011;5217;43.960;10.954;2023-02-03T09:05:30;19.70;;;17.63;;
10343;SDS011;5217;43.960;10.954;2023-02-03T09:07:59;24.07;;;21.50;;
10343;SDS011;5217;43.960;10.954;2023-02-03T09:10:29;23.90;;;21.30;;
10343;SDS011;5217;43.960;10.954;2023-02-03T09:12:57;23.07;;;20.67;;
10343;SDS011;5217;43.960;10.954;2023-02-03T09:15:25;22.60;;;20.20;;
10343;SDS011;5217;43.960;10.954;2023-02-03T09:17:54;24.70;;;20.93;;
10343;SDS011;5217;43.960;10.954;2023-02-03T09:20:23;23.47;;;20.97;;
10343;SDS011;5217;43.960;10.954;2023-02-03T09:22:52;24.27;;;21.67;;
10343;SDS011;5217;43.960;10.954;2023-02-03T09:25:20;24.30;;;21.70;;
10343;SDS011;5217;43.960;10.954;2023-02-03T09:27:50;23.87;;;21.40;;
10343;SDS011;5217;43.960;10.954;2023-02-03T09:30:18;22.93;;;20.53;;
10343;SDS011;5217;43.960;10.954;2023-02-03T09:32:47;25.20;;;21.00;;
10343;SDS011;5217;43.960;10.954;2023-02-03T09:35:21;22.83;;;20.57;;
10343;SDS011;5217;43.960;10.954;2023-02-03T09:37:52;22.23;;;20.03;;
10343;SDS011;5217;43.960;10.954;2023-02-03T09:40:21;25.27;;;22.63;;
10343;SDS011;5217;43.960;10.954;2023-02-03T09:43:02;26.10;;;23.33;;
10343;SDS011;5217;43.960;10.954;2023-02-03T09:45:36;25.77;;;23.07;;
10343;SDS011;5217;43.960;10.954;2023-02-03T09:48:08;24.10;;;21.70;;
10343;SDS011;5217;43.960;10.954;2023-02-03T09:50:41;26.00;;;22.80;;
10343;SDS011;5217;43.960;10.954;2023-02-03T09:53:16;25.53;;;23.03;;
10343;SDS011;5217;43.960;10.954;2023-02-03T09:55:51;27.30;;;24.40;;
10343;SDS011;5217;43.960;10.954;2023-02-03T09:58:22;27.20;;;24.40;;
10343;SDS011;5217;43.960;10.954;2023-02-03T10:00:54;25.83;;;23.23;;
10343;SDS011;5217;43.960;10.954;2023-02-03T10:03:28;26.33;;;23.67;;
10343;SDS011;5217;43.960;10.954;2023-02-03T10:06:11;26.63;;;24.03;;
10343;SDS011;5217;43.960;10.954;2023-02-03T10:08:56;24.17;;;21.63;;
10343;SDS011;5217;43.960;10.954;2023-02-03T10:11:43;24.83;;;22.10;;
10343;SDS011;5217;43.960;10.954;2023-02-03T10:14:25;24.30;;;21.70;;
10343;SDS011;5217;43.960;10.954;2023-02-03T10:17:09;23.40;;;20.97;;
10343;SDS011;5217;43.960;10.954;2023-02-03T10:19:53;23.37;;;20.67;;
10343;SDS011;5217;43.960;10.954;2023-02-03T10:22:26;23.17;;;20.67;;
10343;SDS011;5217;43.960;10.954;2023-02-03T10:24:56;21.57;;;19.33;;
10343;SDS011;5217;43.960;10.954;2023-02-03T10:27:27;20.37;;;18.17;;
10343;SDS011;5217;43.960;10.954;2023-02-03T10:29:59;21.07;;;18.93;;
10343;SDS011;5217;43.960;10.954;2023-02-03T10:32:31;21.37;;;19.13;;
10343;SDS011;5217;43.960;10.954;2023-02-03T10:35:01;21.67;;;19.37;;
10343;SDS011;5217;43.960;10.954;2023-02-03T10:37:32;22.80;;;20.50;;
10343;SDS011;5217;43.960;10.954;2023-02-03T10:40:09;21.67;;;19.37;;
10343;SDS011;5217;43.960;10.954;2023-02-03T10:42:39;21.93;;;19.73;;
10343;SDS011;5217;43.960;10.954;2023-02-03T10:45:27;22.33;;;20.07;;
10343;SDS011;5217;43.960;10.954;2023-02-03T10:47:56;23.10;;;20.73;;
10343;SDS011;5217;43.960;10.954;2023-02-03T10:50:26;22.73;;;20.33;;
10343;SDS011;5217;43.960;10.954;2023-02-03T10:55:48;19.93;;;17.83;;
10343;SDS011;5217;43.960;10.954;2023-02-03T10:58:20;20.27;;;17.70;;
10343;SDS011;5217;43.960;10.954;2023-02-03T11:00:55;18.27;;;16.23;;
10343;SDS011;5217;43.960;10.954;2023-02-03T11:03:25;15.83;;;14.03;;
10343;SDS011;5217;43.960;10.954;2023-02-03T11:06:03;14.00;;;12.60;;
10343;SDS011;5217;43.960;10.954;2023-02-03T11:08:33;13.57;;;12.23;;
10343;SDS011;5217;43.960;10.954;2023-02-03T11:11:03;13.17;;;11.77;;
10343;SDS011;5217;43.960;10.954;2023-02-03T11:13:33;10.00;;;9.00;;
10343;SDS011;5217;43.960;10.954;2023-02-03T11:16:03;11.33;;;9.10;;
10343;SDS011;5217;43.960;10.954;2023-02-03T11:18:44;11.37;;;8.30;;
10343;SDS011;5217;43.960;10.954;2023-02-03T11:21:18;12.63;;;8.40;;
10343;SDS011;5217;43.960;10.954;2023-02-03T11:23:51;9.57;;;7.77;;
10343;SDS011;5217;43.960;10.954;2023-02-03T11:26:23;10.45;;;7.93;;
10343;SDS011;5217;43.960;10.954;2023-02-03T11:28:55;13.02;;;8.57;;
10343;SDS011;5217;43.960;10.954;2023-02-03T11:31:27;9.23;;;7.47;;
10343;SDS011;5217;43.960;10.954;2023-02-03T11:33:58;12.32;;;9.35;;
10343;SDS011;5217;43.960;10.954;2023-02-03T11:36:30;14.55;;;10.00;;
10343;SDS011;5217;43.960;10.954;2023-02-03T11:39:10;12.35;;;8.52;;
10343;SDS011;5217;43.960;10.954;2023-02-03T11:41:44;11.68;;;8.00;;
10343;SDS011;5217;43.960;10.954;2023-02-03T11:44:15;11.05;;;8.60;;
10343;SDS011;5217;43.960;10.954;2023-02-03T11:46:51;10.32;;;6.40;;
10343;SDS011;5217;43.960;10.954;2023-02-03T11:49:44;7.72;;;5.57;;
10343;SDS011;5217;43.960;10.954;2023-02-03T11:55:32;8.88;;;6.45;;
10343;SDS011;5217;43.960;10.954;2023-02-03T11:58:29;11.85;;;9.23;;
10343;SDS011;5217;43.960;10.954;2023-02-03T12:01:22;13.45;;;8.65;;
10343;SDS011;5217;43.960;10.954;2023-02-03T12:07:02;13.10;;;9.95;;
10343;SDS011;5217;43.960;10.954;2023-02-03T12:09:50;12.23;;;8.82;;
10343;SDS011;5217;43.960;10.954;2023-02-03T12:12:32;11.45;;;8.82;;
10343;SDS011;5217;43.960;10.954;2023-02-03T12:15:22;12.00;;;9.45;;
10343;SDS011;5217;43.960;10.954;2023-02-03T12:18:07;14.43;;;10.02;;
10343;SDS011;5217;43.960;10.954;2023-02-03T12:20:49;14.95;;;10.23;;
10343;SDS011;5217;43.960;10.954;2023-02-03T12:23:31;14.93;;;10.90;;
10343;SDS011;5217;43.960;10.954;2023-02-03T12:26:09;17.75;;;12.20;;
10343;SDS011;5217;43.960;10.954;2023-02-03T12:28:47;16.95;;;11.73;;
10343;SDS011;5217;43.960;10.954;2023-02-03T12:31:23;15.20;;;12.07;;
10343;SDS011;5217;43.960;10.954;2023-02-03T12:33:58;16.48;;;12.05;;
10343;SDS011;5217;43.960;10.954;2023-02-03T12:36:36;15.88;;;12.85;;
10343;SDS011;5217;43.960;10.954;2023-02-03T12:39:10;15.03;;;12.90;;
10343;SDS011;5217;43.960;10.954;2023-02-03T12:41:46;14.60;;;11.83;;
10343;SDS011;5217;43.960;10.954;2023-02-03T12:44:22;13.67;;;10.97;;
10343;SDS011;5217;43.960;10.954;2023-02-03T12:46:59;15.40;;;11.60;;
10343;SDS011;5217;43.960;10.954;2023-02-03T12:49:35;16.58;;;11.40;;
10343;SDS011;5217;43.960;10.954;2023-02-03T12:52:13;13.38;;;9.57;;
10343;SDS011;5217;43.960;10.954;2023-02-03T12:54:48;12.60;;;9.30;;
10343;SDS011;5217;43.960;10.954;2023-02-03T12:57:24;13.53;;;8.30;;
10343;SDS011;5217;43.960;10.954;2023-02-03T13:00:00;10.15;;;8.32;;
10343;SDS011;5217;43.960;10.954;2023-02-03T13:02:35;10.00;;;8.07;;
10343;SDS011;5217;43.960;10.954;2023-02-03T13:05:13;10.60;;;7.97;;
10343;SDS011;5217;43.960;10.954;2023-02-03T13:07:50;9.23;;;8.20;;
10343;SDS011;5217;43.960;10.954;2023-02-03T13:10:25;11.47;;;8.83;;
10343;SDS011;5217;43.960;10.954;2023-02-03T13:12:59;14.60;;;10.17;;
10343;SDS011;5217;43.960;10.954;2023-02-03T13:15:33;12.37;;;9.00;;
10343;SDS011;5217;43.960;10.954;2023-02-03T13:18:07;13.10;;;9.10;;
10343;SDS011;5217;43.960;10.954;2023-02-03T13:20:45;14.43;;;8.90;;
10343;SDS011;5217;43.960;10.954;2023-02-03T13:23:15;14.03;;;9.77;;
10343;SDS011;5217;43.960;10.954;2023-02-03T13:25:50;12.30;;;9.17;;
10343;SDS011;5217;43.960;10.954;2023-02-03T13:28:37;11.83;;;9.23;;
10343;SDS011;5217;43.960;10.954;2023-02-03T13:31:21;9.53;;;8.43;;
10343;SDS011;5217;43.960;10.954;2023-02-03T13:34:11;9.60;;;8.37;;
10343;SDS011;5217;43.960;10.954;2023-02-03T13:37:02;10.00;;;7.73;;
10343;SDS011;5217;43.960;10.954;2023-02-03T13:39:58;9.17;;;8.03;;
10343;SDS011;5217;43.960;10.954;2023-02-03T13:42:39;9.47;;;8.10;;
10343;SDS011;5217;43.960;10.954;2023-02-03T13:45:14;9.50;;;7.70;;
10343;SDS011;5217;43.960;10.954;2023-02-03T13:47:50;10.13;;;8.17;;
10343;SDS011;5217;43.960;10.954;2023-02-03T13:50:22;12.07;;;8.83;;
10343;SDS011;5217;43.960;10.954;2023-02-03T13:52:55;9.47;;;8.47;;
10343;SDS011;5217;43.960;10.954;2023-02-03T13:55:29;9.23;;;8.00;;
10343;SDS011;5217;43.960;10.954;2023-02-03T13:58:01;10.87;;;8.67;;
10343;SDS011;5217;43.960;10.954;2023-02-03T14:03:42;9.93;;;7.93;;
10343;SDS011;5217;43.960;10.954;2023-02-03T14:09:33;9.80;;;8.20;;
10343;SDS011;5217;43.960;10.954;2023-02-03T14:12:18;12.57;;;10.13;;
10343;SDS011;5217;43.960;10.954;2023-02-03T14:15:21;11.83;;;9.13;;
10343;SDS011;5217;43.960;10.954;2023-02-03T14:17:57;9.97;;;8.80;;
10343;SDS011;5217;43.960;10.954;2023-02-03T14:20:51;11.63;;;8.67;;
10343;SDS011;5217;43.960;10.954;2023-02-03T14:26:29;12.10;;;8.50;;
10343;SDS011;5217;43.960;10.954;2023-02-03T14:29:05;10.80;;;8.65;;
10343;SDS011;5217;43.960;10.954;2023-02-03T14:31:52;10.33;;;8.13;;
10343;SDS011;5217;43.960;10.954;2023-02-03T14:34:30;9.10;;;7.50;;
10343;SDS011;5217;43.960;10.954;2023-02-03T14:37:20;8.87;;;7.70;;
10343;SDS011;5217;43.960;10.954;2023-02-03T14:45:44;9.50;;;7.50;;
10343;SDS011;5217;43.960;10.954;2023-02-03T14:48:28;10.20;;;8.30;;
10343;SDS011;5217;43.960;10.954;2023-02-03T14:51:09;10.63;;;7.03;;
10343;SDS011;5217;43.960;10.954;2023-02-03T14:53:55;9.40;;;7.27;;
10343;SDS011;5217;43.960;10.954;2023-02-03T14:56:38;9.60;;;8.07;;
10343;SDS011;5217;43.960;10.954;2023-02-03T14:59:35;12.40;;;9.27;;
10343;SDS011;5217;43.960;10.954;2023-02-03T15:02:13;11.70;;;9.17;;
10343;SDS011;5217;43.960;10.954;2023-02-03T15:04:44;11.43;;;8.23;;
10343;SDS011;5217;43.960;10.954;2023-02-03T15:07:35;9.80;;;8.70;;
10343;SDS011;5217;43.960;10.954;2023-02-03T15:10:11;11.00;;;8.70;;
10343;SDS011;5217;43.960;10.954;2023-02-03T15:12:43;12.13;;;9.73;;
10343;SDS011;5217;43.960;10.954;2023-02-03T15:15:23;9.00;;;7.50;;
10343;SDS011;5217;43.960;10.954;2023-02-03T15:17:55;9.17;;;7.10;;
10343;SDS011;5217;43.960;10.954;2023-02-03T15:20:26;7.80;;;5.50;;
10343;SDS011;5217;43.960;10.954;2023-02-03T15:22:59;6.53;;;4.43;;
10343;SDS011;5217;43.960;10.954;2023-02-03T15:25:29;5.93;;;4.50;;
10343;SDS011;5217;43.960;10.954;2023-02-03T15:28:11;6.73;;;4.03;;
10343;SDS011;5217;43.960;10.954;2023-02-03T15:30:42;5.07;;;3.97;;
10343;SDS011;5217;43.960;10.954;2023-02-03T15:33:13;7.03;;;5.07;;
10343;SDS011;5217;43.960;10.954;2023-02-03T15:35:46;8.77;;;5.00;;
10343;SDS011;5217;43.960;10.954;2023-02-03T15:38:17;8.10;;;5.00;;
10343;SDS011;5217;43.960;10.954;2023-02-03T15:40:49;6.30;;;4.23;;